Time;durP1;ratioP1;P1;durP2;ratioP2;P2;SDS_P1;SDS_P2;PMS_P1;PMS_P2;Temp;Humidity;BMP_temperature;BMP_pressure;BME280_temperature;BME280_humidity;BME280_pressure;Samples;Min_cycle;Max_cycle;Signal;HPM_P1;HPM_P2
2021/11/18 00:01:50;;;;;;;28.33;13.87;;;8.70;96.90;;;;;;5114461;28;20951;-68
2021/11/18 00:04:17;;;;;;;26.30;14.40;;;8.70;96.90;;;;;;5114043;28;20430;-68
2021/11/18 00:06:44;;;;;;;18.93;12.17;;;8.70;96.90;;;;;;5114433;28;20447;-68
2021/11/18 00:09:12;;;;;;;26.90;12.80;;;8.70;96.90;;;;;;5114702;28;20486;-68
2021/11/18 00:11:40;;;;;;;27.20;13.73;;;8.70;96.80;;;;;;5115264;28;20533;-68
2021/11/18 00:14:07;;;;;;;28.20;13.80;;;8.70;96.80;;;;;;5115384;28;20794;-68
2021/11/18 00:16:34;;;;;;;30.83;14.03;;;8.80;96.80;;;;;;5114570;28;20519;-68
2021/11/18 00:19:04;;;;;;;28.80;14.50;;;8.80;96.80;;;;;;5114469;28;20442;-68
2021/11/18 00:21:33;;;;;;;26.20;14.23;;;8.70;96.80;;;;;;5114410;28;20509;-68
2021/11/18 00:24:01;;;;;;;33.70;15.27;;;8.70;96.80;;;;;;5114190;28;20442;-68
2021/11/18 00:26:30;;;;;;;23.90;12.00;;;8.70;96.80;;;;;;5114292;28;20469;-68
2021/11/18 00:28:59;;;;;;;30.60;13.53;;;8.70;96.70;;;;;;5114291;28;20466;-68
2021/11/18 00:31:29;;;;;;;21.77;12.93;;;8.70;96.70;;;;;;5114352;28;20446;-68
2021/11/18 00:33:56;;;;;;;25.07;13.13;;;8.70;96.70;;;;;;5114250;28;20478;-68
2021/11/18 00:36:23;;;;;;;26.93;13.80;;;8.70;96.80;;;;;;5114853;28;20799;-68
2021/11/18 00:38:51;;;;;;;28.43;13.27;;;8.70;96.70;;;;;;5114164;28;20439;-68
2021/11/18 00:41:18;;;;;;;25.13;13.90;;;8.70;96.60;;;;;;5113833;28;20439;-68
2021/11/18 00:43:46;;;;;;;18.37;11.77;;;8.70;96.60;;;;;;5113846;28;20442;-68
2021/11/18 00:46:15;;;;;;;29.53;13.93;;;8.70;96.70;;;;;;5113981;28;20859;-68
2021/11/18 00:48:42;;;;;;;24.50;14.30;;;8.60;96.70;;;;;;5114036;28;20453;-68
2021/11/18 00:51:11;;;;;;;26.63;13.50;;;8.60;96.70;;;;;;5114005;28;20454;-68
2021/11/18 00:53:41;;;;;;;26.70;15.73;;;8.60;96.70;;;;;;5113992;28;20492;-68
2021/11/18 00:56:08;;;;;;;26.67;14.10;;;8.60;96.70;;;;;;5113599;28;20968;-68
2021/11/18 00:58:35;;;;;;;25.40;12.23;;;8.60;96.70;;;;;;5113892;28;20450;-68
2021/11/18 01:01:03;;;;;;;25.57;13.30;;;8.60;96.70;;;;;;5113924;28;20450;-68
2021/11/18 01:03:32;;;;;;;30.17;13.67;;;8.60;96.70;;;;;;5113868;28;20443;-68
2021/11/18 01:05:59;;;;;;;29.43;13.40;;;8.60;96.80;;;;;;5113805;28;20467;-68
2021/11/18 01:08:27;;;;;;;28.80;13.90;;;8.60;96.70;;;;;;5113836;28;20447;-68
2021/11/18 01:10:57;;;;;;;27.47;13.17;;;8.60;96.80;;;;;;5113844;28;20542;-68
2021/11/18 01:13:26;;;;;;;23.87;13.53;;;8.60;96.80;;;;;;5113812;28;20423;-68
2021/11/18 01:15:53;;;;;;;26.17;12.30;;;8.60;96.80;;;;;;5114369;28;20814;-68
2021/11/18 01:18:20;;;;;;;23.60;12.60;;;8.60;96.70;;;;;;5118011;28;20443;-68
2021/11/18 01:20:49;;;;;;;32.23;12.87;;;8.60;96.70;;;;;;5117615;28;20944;-68
2021/11/18 01:23:19;;;;;;;20.43;11.90;;;8.50;96.60;;;;;;5117820;28;20443;-68
2021/11/18 01:25:46;;;;;;;23.83;11.80;;;8.50;96.60;;;;;;5117737;28;20454;-68
2021/11/18 01:28:13;;;;;;;25.00;12.00;;;8.50;96.60;;;;;;5117824;28;20454;-68
2021/11/18 01:30:41;;;;;;;30.40;12.70;;;8.50;96.50;;;;;;5117941;28;20450;-68
2021/11/18 01:33:11;;;;;;;22.23;11.60;;;8.50;96.60;;;;;;5117667;28;20446;-68
2021/11/18 01:35:39;;;;;;;27.97;12.83;;;8.50;96.50;;;;;;5117549;28;20478;-68
2021/11/18 01:38:08;;;;;;;24.90;12.73;;;8.40;96.60;;;;;;5117345;28;20512;-68
2021/11/18 01:40:38;;;;;;;31.70;12.60;;;8.40;96.70;;;;;;5117528;28;20439;-68
2021/11/18 01:43:05;;;;;;;25.27;13.17;;;8.40;96.70;;;;;;5117271;28;20447;-68
2021/11/18 01:45:33;;;;;;;36.23;14.13;;;8.30;96.60;;;;;;5117408;28;20534;-68
2021/11/18 01:48:00;;;;;;;25.93;12.53;;;8.40;96.70;;;;;;5117093;28;20940;-68
2021/11/18 01:50:29;;;;;;;26.83;12.77;;;8.30;96.70;;;;;;5117422;28;20449;-68
2021/11/18 01:52:57;;;;;;;29.80;12.03;;;8.30;96.70;;;;;;5117372;28;20446;-68
2021/11/18 01:55:26;;;;;;;33.33;14.03;;;8.30;96.80;;;;;;5117151;28;20478;-68
2021/11/18 01:57:53;;;;;;;29.67;13.10;;;8.30;97.00;;;;;;5117229;28;20446;-68
2021/11/18 02:00:26;;;;;;;29.20;14.07;;;8.20;97.40;;;;;;5117262;28;20443;-68
2021/11/18 02:02:53;;;;;;;33.80;14.17;;;8.30;97.30;;;;;;5117091;28;20423;-68
2021/11/18 02:05:24;;;;;;;35.30;14.53;;;8.30;97.40;;;;;;5116989;28;20506;-68
2021/11/18 02:07:51;;;;;;;29.83;13.37;;;8.30;97.40;;;;;;5117024;28;20450;-68
2021/11/18 02:10:19;;;;;;;29.70;14.00;;;8.30;97.20;;;;;;5116483;28;20458;-68
2021/11/18 02:12:47;;;;;;;30.70;13.47;;;8.40;97.20;;;;;;5116446;28;20961;-68
2021/11/18 02:15:24;;;;;;;35.07;13.40;;;8.30;97.10;;;;;;5116469;28;20493;-68
2021/11/18 02:17:51;;;;;;;28.60;15.27;;;8.30;97.00;;;;;;5116830;28;20433;-68
2021/11/18 02:20:24;;;;;;;29.90;14.23;;;8.30;97.10;;;;;;5116581;28;20447;-68
2021/11/18 02:22:51;;;;;;;32.03;14.70;;;8.30;97.20;;;;;;5116405;28;20919;-68
2021/11/18 02:25:19;;;;;;;32.23;14.10;;;8.30;97.20;;;;;;5116226;28;20454;-68
2021/11/18 02:27:45;;;;;;;32.63;14.53;;;8.30;97.30;;;;;;5115480;28;20449;-68
2021/11/18 02:30:13;;;;;;;30.83;14.00;;;8.20;97.30;;;;;;5116346;28;20841;-68
2021/11/18 02:32:42;;;;;;;29.07;14.70;;;8.30;97.40;;;;;;5116301;28;20469;-68
2021/11/18 02:35:14;;;;;;;29.43;13.97;;;8.20;97.40;;;;;;5116233;28;20486;-68
2021/11/18 02:37:43;;;;;;;38.93;14.57;;;8.20;97.50;;;;;;5116489;28;20431;-68
2021/11/18 02:40:11;;;;;;;28.00;14.57;;;8.20;97.60;;;;;;5116206;28;20932;-68
2021/11/18 02:42:39;;;;;;;32.53;13.70;;;8.20;97.60;;;;;;5115986;28;20462;-68
2021/11/18 02:45:09;;;;;;;45.67;14.70;;;8.30;97.60;;;;;;5116240;28;20470;-68
2021/11/18 02:47:36;;;;;;;39.20;14.77;;;8.30;97.50;;;;;;5116268;28;20821;-68
2021/11/18 02:50:04;;;;;;;33.07;14.50;;;8.20;97.50;;;;;;5116261;28;20449;-68
2021/11/18 02:52:32;;;;;;;34.90;15.10;;;8.30;97.60;;;;;;5115848;28;20447;-68
2021/11/18 02:55:04;;;;;;;38.10;16.57;;;8.20;97.70;;;;;;5116072;28;20486;-68
2021/11/18 02:57:31;;;;;;;37.70;15.90;;;8.10;97.80;;;;;;5116256;28;20428;-68
2021/11/18 02:59:58;;;;;;;29.53;14.77;;;8.20;97.80;;;;;;5115743;28;20952;-68
2021/11/18 03:02:25;;;;;;;38.67;15.40;;;8.20;97.70;;;;;;5116029;27;20443;-68
2021/11/18 03:04:52;;;;;;;29.40;14.70;;;8.20;97.60;;;;;;5115867;28;21030;-68
2021/11/18 03:07:19;;;;;;;36.37;15.63;;;8.20;97.50;;;;;;5115886;28;20442;-68
2021/11/18 03:09:46;;;;;;;35.70;16.13;;;8.20;97.50;;;;;;5115902;28;20419;-68
2021/11/18 03:12:14;;;;;;;31.63;15.60;;;8.20;97.50;;;;;;5115586;28;20445;-68
2021/11/18 03:14:40;;;;;;;37.60;17.07;;;8.20;97.30;;;;;;5115522;28;20584;-68
2021/11/18 03:17:07;;;;;;;40.70;15.90;;;8.20;97.20;;;;;;5115420;28;20449;-68
2021/11/18 03:19:34;;;;;;;36.27;16.10;;;8.20;97.10;;;;;;5115603;28;20461;-68
2021/11/18 03:22:01;;;;;;;35.80;15.43;;;8.30;97.00;;;;;;5115726;28;20449;-67
2021/11/18 03:24:28;;;;;;;29.37;15.37;;;8.30;97.00;;;;;;5115545;28;20439;-68
2021/11/18 03:26:58;;;;;;;41.30;17.30;;;8.20;96.90;;;;;;5115512;28;20450;-68
2021/11/18 03:29:27;;;;;;;31.90;16.57;;;8.20;96.90;;;;;;5115432;28;20439;-68
2021/11/18 03:31:54;;;;;;;34.03;16.43;;;8.20;96.90;;;;;;5115465;28;20459;-68
2021/11/18 03:34:24;;;;;;;32.97;15.90;;;8.20;96.90;;;;;;5115181;28;20443;-68
2021/11/18 03:36:52;;;;;;;38.17;17.23;;;8.10;96.80;;;;;;5115313;28;20427;-68
2021/11/18 03:39:20;;;;;;;30.90;15.33;;;8.10;96.80;;;;;;5115268;28;20530;-68
2021/11/18 03:41:50;;;;;;;31.47;15.90;;;8.10;96.80;;;;;;5115025;28;20439;-68
2021/11/18 03:44:18;;;;;;;39.67;18.17;;;8.10;96.70;;;;;;5115271;28;20767;-68
2021/11/18 03:46:50;;;;;;;31.63;16.63;;;8.00;96.70;;;;;;5115147;28;20449;-68
2021/11/18 03:49:17;;;;;;;31.57;17.27;;;8.00;96.70;;;;;;5115114;28;20802;-68
2021/11/18 03:51:45;;;;;;;34.27;17.77;;;8.00;96.80;;;;;;5114607;28;20951;-68
2021/11/18 03:54:14;;;;;;;32.07;15.13;;;8.00;96.90;;;;;;5114723;28;20968;-68
2021/11/18 03:56:42;;;;;;;32.23;16.00;;;7.90;96.90;;;;;;5114780;28;20487;-68
2021/11/18 03:59:10;;;;;;;29.77;16.50;;;8.00;96.90;;;;;;5114862;28;20450;-68
2021/11/18 04:01:37;;;;;;;34.67;16.90;;;8.00;96.90;;;;;;5114849;28;20451;-68
2021/11/18 04:04:08;;;;;;;44.77;17.40;;;8.00;96.90;;;;;;5115088;28;20439;-68
2021/11/18 04:06:37;;;;;;;34.43;16.70;;;8.00;96.90;;;;;;5114962;28;20462;-68
2021/11/18 04:09:04;;;;;;;33.57;16.70;;;8.00;96.90;;;;;;5114612;28;20459;-68
2021/11/18 04:11:32;;;;;;;38.40;18.43;;;8.00;96.90;;;;;;5114731;28;20443;-68
2021/11/18 04:13:59;;;;;;;34.70;16.40;;;8.00;96.90;;;;;;5114607;28;20449;-68
2021/11/18 04:16:28;;;;;;;34.37;17.60;;;8.00;96.90;;;;;;5114411;28;20510;-68
2021/11/18 04:18:54;;;;;;;29.10;17.43;;;7.90;96.80;;;;;;5114519;28;20447;-68
2021/11/18 04:21:23;;;;;;;33.63;17.50;;;7.90;96.80;;;;;;5114184;28;20944;-68
2021/11/18 04:23:50;;;;;;;30.03;15.90;;;8.00;96.80;;;;;;5114432;28;20453;-68
2021/11/18 04:26:17;;;;;;;36.77;16.47;;;7.90;96.80;;;;;;5114038;28;20490;-68
2021/11/18 04:28:43;;;;;;;35.67;16.63;;;7.90;96.80;;;;;;5113949;28;20809;-68
2021/11/18 04:31:15;;;;;;;36.10;17.27;;;7.90;96.70;;;;;;5114302;28;20453;-68
2021/11/18 04:33:42;;;;;;;29.50;17.70;;;7.90;96.70;;;;;;5114135;28;20869;-67
2021/11/18 04:36:11;;;;;;;38.33;17.63;;;7.90;96.80;;;;;;5114014;28;20479;-67
2021/11/18 04:38:40;;;;;;;35.00;16.60;;;7.90;96.80;;;;;;5114184;28;20447;-67
2021/11/18 04:41:08;;;;;;;33.30;18.03;;;7.80;96.70;;;;;;5113808;28;20990;-67
2021/11/18 04:43:35;;;;;;;35.93;17.33;;;7.80;96.90;;;;;;5113614;28;20969;-69
2021/11/18 04:46:02;;;;;;;34.07;16.97;;;7.80;96.90;;;;;;5113977;28;20458;-69
2021/11/18 04:48:29;;;;;;;41.63;17.97;;;7.80;96.90;;;;;;5114121;28;20450;-67
2021/11/18 04:50:56;;;;;;;32.57;18.60;;;7.70;97.00;;;;;;5113508;28;20450;-69
2021/11/18 04:53:26;;;;;;;33.07;18.40;;;7.70;97.20;;;;;;5113638;28;20451;-67
2021/11/18 04:55:55;;;;;;;35.67;18.50;;;7.70;97.30;;;;;;5113860;28;20483;-68
2021/11/18 04:58:22;;;;;;;33.13;18.20;;;7.70;97.40;;;;;;5113964;28;20450;-67
2021/11/18 05:00:53;;;;;;;35.43;16.90;;;7.70;97.40;;;;;;5113915;28;20443;-67
2021/11/18 05:03:21;;;;;;;34.27;17.83;;;7.70;97.40;;;;;;5113673;28;20927;-67
2021/11/18 05:05:49;;;;;;;40.17;18.63;;;7.70;97.40;;;;;;5113811;28;20800;-68
2021/11/18 05:08:17;;;;;;;34.67;17.80;;;7.70;97.40;;;;;;5113852;28;20442;-68
2021/11/18 05:10:46;;;;;;;37.53;17.77;;;7.80;97.40;;;;;;5113783;28;20816;-67
2021/11/18 05:13:15;;;;;;;41.83;16.93;;;7.80;97.40;;;;;;5113545;28;20451;-67
2021/11/18 05:15:45;;;;;;;34.10;18.20;;;7.80;97.30;;;;;;5113745;28;20482;-67
2021/11/18 05:18:11;;;;;;;33.00;17.83;;;7.90;97.30;;;;;;5114043;28;20443;-69
2021/11/18 05:20:39;;;;;;;32.97;15.77;;;7.90;97.30;;;;;;5113514;28;20961;-68
2021/11/18 05:23:06;;;;;;;27.80;17.00;;;7.90;97.10;;;;;;5113700;28;20447;-67
2021/11/18 05:25:33;;;;;;;33.97;17.17;;;7.90;97.20;;;;;;5113572;28;20459;-67
2021/11/18 05:28:01;;;;;;;32.90;17.60;;;8.00;97.20;;;;;;5113742;28;20450;-68
2021/11/18 05:30:32;;;;;;;32.20;17.70;;;7.90;97.20;;;;;;5113300;28;20955;-67
2021/11/18 05:33:01;;;;;;;36.00;16.87;;;8.00;97.20;;;;;;5113693;28;20427;-69
2021/11/18 05:35:29;;;;;;;30.33;17.27;;;8.00;97.20;;;;;;5113411;28;20493;-69
2021/11/18 05:37:56;;;;;;;37.93;18.43;;;8.00;97.20;;;;;;5113522;28;20446;-69
2021/11/18 05:40:24;;;;;;;34.53;17.30;;;8.00;97.20;;;;;;5114106;28;20446;-69
2021/11/18 05:42:51;;;;;;;34.60;17.67;;;8.00;97.20;;;;;;5113017;28;20466;-69
2021/11/18 05:45:22;;;;;;;35.80;17.27;;;8.00;97.20;;;;;;5112974;28;20455;-68
2021/11/18 05:47:50;;;;;;;33.53;17.30;;;8.10;97.20;;;;;;5114329;28;20769;-67
2021/11/18 05:50:18;;;;;;;38.87;17.57;;;8.10;97.50;;;;;;5113398;28;20474;-67
2021/11/18 05:52:45;;;;;;;36.60;17.63;;;8.10;97.00;;;;;;5113363;28;20453;-67
2021/11/18 05:55:15;;;;;;;41.60;17.70;;;8.10;97.00;;;;;;5114142;28;20471;-68
2021/11/18 05:57:43;;;;;;;34.67;17.73;;;8.10;97.10;;;;;;5113350;28;20457;-68
2021/11/18 06:00:13;;;;;;;31.60;17.83;;;8.10;97.00;;;;;;5113267;28;20447;-67
2021/11/18 06:02:40;;;;;;;33.10;17.17;;;8.10;97.10;;;;;;5113940;28;20832;-67
2021/11/18 06:05:09;;;;;;;36.10;18.47;;;8.10;97.10;;;;;;5116960;28;20466;-67
2021/11/18 06:07:37;;;;;;;34.50;17.40;;;8.10;97.20;;;;;;5116962;28;20871;-68
2021/11/18 06:10:04;;;;;;;38.80;18.40;;;8.10;97.10;;;;;;5117004;28;20446;-67
2021/11/18 06:12:31;;;;;;;28.00;16.93;;;8.10;97.10;;;;;;5116896;28;20457;-67
2021/11/18 06:14:58;;;;;;;35.90;17.40;;;8.10;97.30;;;;;;5116847;28;20466;-67
2021/11/18 06:17:25;;;;;;;30.77;16.93;;;8.00;97.30;;;;;;5116775;28;20478;-68
2021/11/18 06:19:51;;;;;;;42.77;17.63;;;8.00;97.50;;;;;;5116691;28;20443;-68
2021/11/18 06:22:24;;;;;;;38.47;17.30;;;7.90;97.50;;;;;;5116726;28;20448;-68
2021/11/18 06:24:52;;;;;;;34.63;17.67;;;8.00;97.60;;;;;;5116970;28;20466;-68
2021/11/18 06:27:19;;;;;;;45.77;17.17;;;8.00;97.60;;;;;;5116603;28;20435;-68
2021/11/18 06:29:45;;;;;;;33.53;16.57;;;8.00;97.60;;;;;;5116655;27;20499;-68
2021/11/18 06:32:12;;;;;;;33.57;16.70;;;8.00;97.60;;;;;;5116298;28;20427;-68
2021/11/18 06:34:41;;;;;;;33.50;17.10;;;8.10;97.70;;;;;;5116351;28;20470;-68
2021/11/18 06:37:09;;;;;;;33.90;16.90;;;8.10;97.70;;;;;;5116015;28;20478;-68
2021/11/18 06:39:41;;;;;;;33.83;16.27;;;8.10;97.50;;;;;;5116041;28;20443;-68
2021/11/18 06:42:11;;;;;;;31.80;17.07;;;8.10;97.60;;;;;;5115883;28;20824;-68
2021/11/18 06:44:38;;;;;;;38.00;17.10;;;8.10;97.60;;;;;;5117047;28;20415;-68
2021/11/18 06:47:06;;;;;;;35.20;15.23;;;8.10;97.60;;;;;;5116122;28;20455;-68
2021/11/18 06:49:32;;;;;;;30.27;16.43;;;8.20;97.70;;;;;;5115749;28;20967;-68
2021/11/18 06:51:59;;;;;;;37.00;15.67;;;8.20;97.60;;;;;;5115964;28;20447;-68
2021/11/18 06:54:26;;;;;;;39.27;15.83;;;8.20;97.50;;;;;;5115982;28;20443;-68
2021/11/18 06:56:54;;;;;;;32.03;15.50;;;8.30;97.50;;;;;;5115948;28;20474;-68
2021/11/18 06:59:21;;;;;;;34.63;16.03;;;8.30;97.40;;;;;;5115804;28;20450;-68
2021/11/18 07:01:49;;;;;;;35.53;16.60;;;8.30;97.40;;;;;;5115897;28;20550;-69
2021/11/18 07:04:17;;;;;;;32.20;14.23;;;8.30;97.40;;;;;;5115753;28;20532;-68
2021/11/18 07:06:45;;;;;;;30.83;14.60;;;8.30;97.30;;;;;;5115690;28;20463;-68
2021/11/18 07:09:12;;;;;;;34.10;14.67;;;8.40;97.30;;;;;;5115773;28;20526;-68
2021/11/18 07:11:39;;;;;;;29.20;15.20;;;8.40;97.20;;;;;;5115728;28;20451;-68
2021/11/18 07:14:07;;;;;;;30.17;15.30;;;8.40;97.20;;;;;;5115369;28;20442;-68
2021/11/18 07:16:34;;;;;;;41.17;14.47;;;8.40;97.20;;;;;;5115605;28;20485;-68
2021/11/18 07:19:05;;;;;;;33.93;15.93;;;8.40;97.20;;;;;;5115651;28;20450;-68
2021/11/18 07:21:35;;;;;;;30.70;14.60;;;8.40;97.20;;;;;;5115965;28;20446;-68
2021/11/18 07:24:03;;;;;;;33.83;16.07;;;8.50;97.30;;;;;;5116166;28;20510;-68
2021/11/18 07:26:31;;;;;;;31.10;14.37;;;8.50;97.30;;;;;;5115541;28;20463;-68
2021/11/18 07:28:59;;;;;;;35.13;15.57;;;8.50;97.20;;;;;;5115118;28;20446;-68
2021/11/18 07:31:27;;;;;;;31.80;13.50;;;8.50;97.10;;;;;;5115378;28;20446;-68
2021/11/18 07:33:54;;;;;;;26.43;13.70;;;8.60;97.10;;;;;;5115012;28;20450;-68
2021/11/18 07:36:21;;;;;;;29.93;14.20;;;8.60;97.00;;;;;;5115127;28;20493;-68
2021/11/18 07:38:48;;;;;;;29.20;13.37;;;8.60;97.00;;;;;;5115288;28;20452;-68
2021/11/18 07:41:14;;;;;;;28.30;12.97;;;8.60;96.90;;;;;;5114924;28;20447;-68
2021/11/18 07:43:43;;;;;;;28.70;13.23;;;8.70;97.00;;;;;;5114887;28;20458;-68
2021/11/18 07:46:13;;;;;;;24.70;12.90;;;8.70;96.90;;;;;;5115017;28;20463;-68
2021/11/18 07:48:43;;;;;;;38.20;14.63;;;8.70;96.90;;;;;;5116134;28;20449;-68
2021/11/18 07:51:11;;;;;;;25.80;12.67;;;8.80;97.00;;;;;;5114831;28;20433;-69
2021/11/18 07:53:39;;;;;;;24.40;11.87;;;8.80;96.80;;;;;;5114962;28;20442;-68
2021/11/18 07:56:06;;;;;;;30.50;13.17;;;8.80;96.80;;;;;;5114793;28;20482;-68
2021/11/18 07:58:33;;;;;;;27.40;11.97;;;8.90;96.80;;;;;;5114892;28;20450;-69
2021/11/18 08:01:00;;;;;;;30.07;12.70;;;8.90;96.80;;;;;;5114783;28;20447;-68
2021/11/18 08:03:30;;;;;;;31.50;12.13;;;9.00;96.80;;;;;;5114800;28;20443;-69
2021/11/18 08:05:59;;;;;;;25.90;11.67;;;9.00;96.70;;;;;;5114306;28;20968;-69
2021/11/18 08:08:26;;;;;;;25.67;11.30;;;9.10;96.60;;;;;;5114659;28;20454;-69
2021/11/18 08:10:53;;;;;;;26.87;12.00;;;9.10;96.50;;;;;;5114637;28;20813;-68
2021/11/18 08:13:20;;;;;;;31.27;13.20;;;9.20;96.40;;;;;;5114584;28;20450;-68
2021/11/18 08:15:48;;;;;;;24.57;11.60;;;9.20;96.40;;;;;;5113987;28;20474;-68
2021/11/18 08:18:15;;;;;;;24.30;12.57;;;9.30;96.20;;;;;;5114512;28;20477;-68
2021/11/18 08:20:42;;;;;;;28.27;13.77;;;9.30;96.10;;;;;;5114441;28;20530;-68
2021/11/18 08:23:11;;;;;;;27.07;12.90;;;9.40;96.10;;;;;;5114434;28;20449;-68
2021/11/18 08:25:38;;;;;;;28.20;13.17;;;9.40;96.40;;;;;;5113595;28;20467;-69
2021/11/18 08:28:05;;;;;;;29.30;13.40;;;9.40;96.00;;;;;;5117845;28;20443;-72
2021/11/18 08:30:34;;;;;;;23.00;13.00;;;9.40;95.90;;;;;;5119123;28;20434;-72
2021/11/18 08:33:03;;;;;;;23.33;12.20;;;9.40;95.90;;;;;;5117637;28;20451;-72
2021/11/18 08:35:33;;;;;;;31.53;13.10;;;9.40;95.80;;;;;;5117983;28;20473;-72
2021/11/18 08:38:00;;;;;;;29.30;13.50;;;9.40;95.80;;;;;;5117245;28;20510;-72
2021/11/18 08:40:30;;;;;;;27.13;12.80;;;9.40;95.90;;;;;;5115566;28;20481;-72
2021/11/18 08:42:57;;;;;;;29.47;14.07;;;9.40;95.90;;;;;;5116027;28;20971;-72
2021/11/18 08:45:24;;;;;;;23.30;13.20;;;9.40;96.10;;;;;;5116451;28;20459;-72
2021/11/18 08:47:52;;;;;;;24.60;12.90;;;9.50;96.10;;;;;;5116555;28;20522;-72
2021/11/18 08:50:21;;;;;;;31.30;15.27;;;9.50;96.00;;;;;;5116400;28;20451;-72
2021/11/18 08:52:49;;;;;;;29.27;14.20;;;9.60;95.90;;;;;;5115889;28;20447;-72
2021/11/18 08:55:19;;;;;;;26.43;14.00;;;9.70;95.80;;;;;;5116288;28;20459;-72
2021/11/18 08:57:49;;;;;;;22.07;12.50;;;9.70;95.70;;;;;;5116830;28;20473;-72
2021/11/18 09:00:19;;;;;;;24.87;14.03;;;9.80;95.60;;;;;;5116338;28;20446;-72
2021/11/18 09:02:47;;;;;;;34.13;13.80;;;9.80;95.40;;;;;;5116817;28;20919;-72
2021/11/18 09:05:14;;;;;;;23.40;13.50;;;9.90;95.30;;;;;;5116479;28;20459;-72
2021/11/18 09:07:40;;;;;;;28.53;14.23;;;9.90;95.20;;;;;;5117893;28;20435;-72
2021/11/18 09:10:11;;;;;;;27.00;13.43;;;10.00;94.60;;;;;;5116808;28;20443;-72
2021/11/18 09:12:39;;;;;;;22.63;13.40;;;10.00;94.20;;;;;;5116291;28;20467;-73
2021/11/18 09:15:08;;;;;;;31.23;13.67;;;10.10;94.30;;;;;;5116421;28;20463;-72
2021/11/18 09:17:35;;;;;;;26.27;14.73;;;10.20;94.00;;;;;;5116731;28;20470;-72
2021/11/18 09:20:02;;;;;;;32.03;14.87;;;10.20;93.90;;;;;;5117547;28;20439;-72
2021/11/18 09:22:28;;;;;;;23.27;14.03;;;10.20;93.80;;;;;;5117944;28;20520;-72
2021/11/18 09:24:58;;;;;;;28.27;14.00;;;10.10;93.80;;;;;;5118065;28;20700;-72
2021/11/18 09:27:29;;;;;;;26.37;13.83;;;10.20;93.90;;;;;;5119480;28;20536;-72
2021/11/18 09:29:56;;;;;;;38.03;15.10;;;10.20;93.60;;;;;;5118865;28;20436;-72
2021/11/18 09:32:29;;;;;;;28.13;14.63;;;10.20;93.60;;;;;;5118269;28;20450;-72
2021/11/18 09:34:55;;;;;;;33.67;14.73;;;10.20;93.80;;;;;;5118807;28;20477;-72
2021/11/18 09:37:22;;;;;;;32.97;15.97;;;10.20;93.90;;;;;;5119898;28;21052;-72
2021/11/18 09:39:49;;;;;;;31.17;13.57;;;10.30;93.80;;;;;;5121847;28;20447;-72
2021/11/18 09:42:19;;;;;;;24.67;13.93;;;10.30;93.80;;;;;;5119992;28;20454;-72
2021/11/18 09:45:05;;;;;;;31.77;13.90;;;10.30;93.70;;;;;;5119566;28;20501;-72
2021/11/18 09:48:12;;;;;;;28.63;13.37;;;10.30;93.70;;;;;;5119410;28;20419;-72
2021/11/18 09:50:50;;;;;;;28.23;13.20;;;10.40;93.80;;;;;;5112686;28;20483;-72
2021/11/18 09:53:31;;;;;;;22.47;13.30;;;10.50;93.80;;;;;;5120545;28;20430;-72
2021/11/18 09:56:08;;;;;;;34.23;16.07;;;10.60;93.60;;;;;;5120269;28;20454;-72
2021/11/18 09:58:53;;;;;;;29.23;15.23;;;10.60;93.50;;;;;;5119776;28;20469;-72
2021/11/18 10:01:41;;;;;;;26.80;13.90;;;10.70;93.50;;;;;;5119682;28;20427;-73
2021/11/18 10:04:27;;;;;;;28.90;14.00;;;10.80;93.30;;;;;;5118267;28;20438;-73
2021/11/18 10:06:57;;;;;;;28.10;12.57;;;10.90;93.20;;;;;;5118426;28;20459;-72
2021/11/18 10:09:30;;;;;;;28.87;14.37;;;10.90;92.90;;;;;;5119339;28;20430;-72
2021/11/18 10:12:07;;;;;;;26.80;14.07;;;10.90;92.90;;;;;;5118621;28;20422;-72
2021/11/18 10:14:54;;;;;;;28.77;13.80;;;11.00;92.80;;;;;;5119364;28;20434;-72
2021/11/18 10:17:29;;;;;;;27.13;13.83;;;11.10;92.50;;;;;;5117876;28;20462;-72
2021/11/18 10:20:01;;;;;;;29.57;13.20;;;11.10;92.40;;;;;;5118212;28;20469;-72
2021/11/18 10:22:33;;;;;;;37.30;14.00;;;11.10;92.40;;;;;;5119007;28;20450;-72
2021/11/18 10:25:00;;;;;;;25.07;12.50;;;11.10;92.20;;;;;;5119435;28;20462;-72
2021/11/18 10:27:31;;;;;;;32.53;12.30;;;11.20;92.30;;;;;;5118769;28;20442;-72
2021/11/18 10:30:11;;;;;;;30.13;11.87;;;11.20;92.20;;;;;;5120294;28;20427;-72
2021/11/18 10:32:49;;;;;;;23.60;11.83;;;11.20;92.20;;;;;;5119948;28;20796;-73
2021/11/18 10:35:19;;;;;;;26.57;13.03;;;11.10;92.10;;;;;;5120287;28;20998;-72
2021/11/18 10:37:50;;;;;;;22.40;11.90;;;11.20;92.30;;;;;;5120946;28;20475;-72
2021/11/18 10:40:20;;;;;;;27.93;12.80;;;11.30;92.40;;;;;;5122306;28;20427;-72
2021/11/18 10:42:50;;;;;;;21.67;11.37;;;11.40;92.40;;;;;;5122815;28;20459;-71
2021/11/18 10:45:35;;;;;;;25.87;10.30;;;11.60;92.40;;;;;;5120301;28;20462;-68
2021/11/18 10:48:05;;;;;;;24.37;9.97;;;11.70;91.60;;;;;;5116246;28;20426;-70
2021/11/18 10:50:38;;;;;;;22.87;10.93;;;11.80;91.00;;;;;;5115566;28;20433;-70
2021/11/18 10:53:13;;;;;;;23.83;10.20;;;11.90;90.60;;;;;;5116088;28;20434;-70
2021/11/18 10:55:43;;;;;;;24.13;9.37;;;12.10;90.30;;;;;;5116131;28;20462;-70
2021/11/18 10:58:14;;;;;;;24.13;8.77;;;12.20;90.10;;;;;;5116175;28;20831;-70
2021/11/18 11:00:46;;;;;;;24.10;8.30;;;12.30;89.10;;;;;;5115900;28;20501;-68
2021/11/18 11:03:30;;;;;;;19.73;7.47;;;12.40;87.30;;;;;;5115591;28;20897;-68
2021/11/18 11:06:19;;;;;;;22.43;8.43;;;12.60;88.00;;;;;;5115661;28;20840;-68
2021/11/18 11:08:52;;;;;;;17.70;6.63;;;12.80;85.40;;;;;;5110563;27;20440;-68
2021/11/18 11:11:50;;;;;;;18.10;7.43;;;13.00;84.90;;;;;;5115794;27;20438;-68
2021/11/18 11:15:02;;;;;;;18.47;6.07;;;13.20;84.40;;;;;;5115518;28;20460;-68
2021/11/18 11:18:01;;;;;;;18.37;6.43;;;13.60;83.10;;;;;;5067481;27;20475;-68
2021/11/18 11:20:37;;;;;;;15.40;5.83;;;13.60;81.50;;;;;;5115297;28;20431;-68
2021/11/18 11:23:11;;;;;;;13.27;7.37;;;13.30;80.80;;;;;;5115503;28;20449;-68
2021/11/18 11:25:55;;;;;;;21.27;6.50;;;13.20;83.20;;;;;;5115510;28;20458;-68
2021/11/18 11:28:50;;;;;;;16.00;5.60;;;13.40;82.20;;;;;;5115419;28;20446;-68
2021/11/18 11:31:33;;;;;;;17.10;6.73;;;13.60;82.30;;;;;;5115418;28;20432;-68
2021/11/18 11:34:08;;;;;;;13.07;5.60;;;13.90;80.60;;;;;;5115067;28;20424;-68
2021/11/18 11:36:41;;;;;;;19.57;6.20;;;13.90;78.20;;;;;;5115205;28;20450;-69
2021/11/18 11:39:18;;;;;;;15.37;6.30;;;14.10;78.70;;;;;;5115497;28;20427;-69
2021/11/18 11:42:24;;;;;;;24.67;6.17;;;14.00;78.40;;;;;;5114879;28;20457;-69
2021/11/18 11:45:09;;;;;;;19.73;5.93;;;14.00;77.70;;;;;;5115015;28;20829;-69
2021/11/18 11:48:02;;;;;;;19.23;6.30;;;14.20;78.00;;;;;;5114846;28;20419;-69
2021/11/18 11:50:37;;;;;;;17.13;6.00;;;14.20;77.50;;;;;;5114778;28;20922;-69
2021/11/18 11:53:08;;;;;;;18.83;5.80;;;14.20;76.50;;;;;;5115086;28;20427;-69
2021/11/18 11:56:02;;;;;;;12.60;5.77;;;14.30;76.80;;;;;;5114872;28;20474;-69
2021/11/18 11:58:35;;;;;;;16.50;7.17;;;14.30;75.30;;;;;;5115457;28;20520;-69
2021/11/18 12:01:25;;;;;;;15.90;6.90;;;14.20;75.10;;;;;;5113840;28;20427;-69
2021/11/18 12:03:57;;;;;;;12.00;6.03;;;14.30;75.20;;;;;;5115032;28;20860;-69
2021/11/18 12:06:29;;;;;;;14.70;5.50;;;14.50;75.80;;;;;;5114794;28;20465;-69
2021/11/18 12:09:00;;;;;;;15.37;5.00;;;14.80;75.10;;;;;;5114546;28;20785;-69
2021/11/18 12:11:44;;;;;;;17.70;6.13;;;15.10;74.80;;;;;;5114731;28;20433;-69
2021/11/18 12:14:22;;;;;;;18.83;4.83;;;14.90;72.50;;;;;;5114543;28;20419;-69
2021/11/18 12:16:53;;;;;;;14.40;5.80;;;15.00;72.30;;;;;;5114460;28;20410;-69
2021/11/18 12:19:40;;;;;;;18.10;5.53;;;15.00;72.60;;;;;;5114447;28;20932;-69
2021/11/18 12:22:29;;;;;;;14.00;5.40;;;15.00;71.70;;;;;;5114637;28;20431;-69
2021/11/18 12:25:04;;;;;;;14.00;5.43;;;14.90;71.90;;;;;;5114570;28;20961;-69
2021/11/18 12:27:34;;;;;;;17.13;6.20;;;14.90;71.60;;;;;;5114331;28;20423;-69
2021/11/18 12:30:32;;;;;;;14.17;5.87;;;14.70;71.40;;;;;;5114463;28;20454;-69
2021/11/18 12:33:03;;;;;;;14.93;6.30;;;14.90;72.00;;;;;;5113966;28;20974;-69
2021/11/18 12:35:47;;;;;;;13.30;5.20;;;14.90;72.40;;;;;;5114178;28;20470;-69
2021/11/18 12:38:38;;;;;;;17.20;5.80;;;15.00;71.70;;;;;;5114228;28;20474;-69
2021/11/18 12:41:14;;;;;;;20.57;5.43;;;14.80;70.70;;;;;;5114296;28;20443;-69
2021/11/18 12:44:11;;;;;;;17.90;5.53;;;14.50;70.90;;;;;;5113760;28;20967;-69
2021/11/18 12:46:57;;;;;;;16.40;5.90;;;14.50;72.00;;;;;;5097243;27;20467;-69
2021/11/18 12:49:25;;;;;;;16.10;5.93;;;14.40;72.30;;;;;;5114169;28;20466;-69
2021/11/18 12:52:15;;;;;;;23.47;6.23;;;14.40;72.50;;;;;;5113902;28;20439;-69
2021/11/18 12:55:19;;;;;;;13.80;5.30;;;14.30;74.10;;;;;;5113913;28;20439;-69